Etusivu
METAR-TAF:

METAR-TAF

Lentoasemat :

Rønne, Tanska

Leveyspiiri: 55-04N, Pituuspiiri: 014-45E, korkeus merenpinnasta: 16 m

Tämänhetkinen sää

Tämä raportti tehtiin 28 minuuttia sitten, kello 19.50 UTC
Tuuli 16 kn lounaasta, vaihdellen etelän ja lännen/lounaan välillä
Lämpötila 6°C
Kosteus 100%
Ilmanpaine 999 hPa
Näkyvyys: 7000 m
heikkoja vesikuuroja

METAR: EKRN 061950Z AUTO 22016KT 190V250 7000 -SHRA OVC008/// 06/06 Q0999

Aika: 21:18 (20:18 UTC)

Sääennuste

Tämä raportti tehtiin 3 tuntia ja 0 minuuttia sitten, kello 17.18 UTC
Ennuste voimassa 06. päivästä klo 18 UTC - 06. päivään klo 23 UTC
Tuuli 20 kn lounaasta
Näkyvyys: 8000 m
Hajonneita pilviä 800 ft:n korkeudessa
Ajoittain
06. päivästä klo 18 UTC - 06. päivään klo 23 UTC
Tuuli 22 kn lännestä/lounaasta puuskistuen 32 kn:hen
Näkyvyys: 4000 m
Hajonneita pilviä 1200 ft:n korkeudessa
heikkoa sadetta, tihkusadetta, utua

TAF: EKRN 061718Z 0618/0623 23020KT 8000 BKN008 TEMPO 0618/0623 24022G32KT 4000 -RADZ BR BKN012

Säähavainnot ja -ennusteet yli 4000 lentoasemalta (METAR- ja TAF-raportit).

Käytössä olevat sääasemat on merkitty karttaan keltaisilla ja punaisilla pisteillä.

Aseta hiiri pisteen päälle nähdäksesi sääaseman nimen.

Klikkaa sitten nähdäksesi säähavainnot ja -ennusteet.

Kartan vaihtaminen: klikkaa mustalla rastilla varustettuja vihreitä pisteitä, niin voit zoomata sisään; viivalla varustettua vihreää pistettä, niin voit zoomata ulos tai vihreitä nuolia, niin pääset viereisille kartoille.


METAR-TAF: